sensor_id;sensor_type;location;lat;lon;timestamp;P1;durP1;ratioP1;P2;durP2;ratioP2
63203;SDS011;49297;43.210;27.914;2022-08-01T00:00:25;5.15;;;4.65;;
63203;SDS011;49297;43.210;27.914;2022-08-01T00:03:02;6.28;;;4.63;;
63203;SDS011;49297;43.210;27.914;2022-08-01T00:05:28;6.22;;;4.95;;
63203;SDS011;49297;43.210;27.914;2022-08-01T00:07:54;4.70;;;4.07;;
63203;SDS011;49297;43.210;27.914;2022-08-01T00:10:20;4.70;;;4.30;;
63203;SDS011;49297;43.210;27.914;2022-08-01T00:12:46;4.63;;;4.00;;
63203;SDS011;49297;43.210;27.914;2022-08-01T00:15:13;4.85;;;4.22;;
63203;SDS011;49297;43.210;27.914;2022-08-01T00:17:40;6.18;;;5.03;;
63203;SDS011;49297;43.210;27.914;2022-08-01T00:20:08;8.90;;;4.50;;
63203;SDS011;49297;43.210;27.914;2022-08-01T00:22:35;4.72;;;4.15;;
63203;SDS011;49297;43.210;27.914;2022-08-01T00:25:01;4.65;;;4.22;;
63203;SDS011;49297;43.210;27.914;2022-08-01T00:27:29;5.18;;;4.63;;
63203;SDS011;49297;43.210;27.914;2022-08-01T00:29:55;10.98;;;6.35;;
63203;SDS011;49297;43.210;27.914;2022-08-01T00:32:21;9.73;;;5.05;;
63203;SDS011;49297;43.210;27.914;2022-08-01T00:34:47;5.45;;;4.95;;
63203;SDS011;49297;43.210;27.914;2022-08-01T00:37:13;8.20;;;6.15;;
63203;SDS011;49297;43.210;27.914;2022-08-01T00:39:39;6.78;;;6.13;;
63203;SDS011;49297;43.210;27.914;2022-08-01T00:42:08;11.02;;;6.68;;
63203;SDS011;49297;43.210;27.914;2022-08-01T00:44:35;7.10;;;6.50;;
63203;SDS011;49297;43.210;27.914;2022-08-01T00:47:02;10.68;;;7.25;;
63203;SDS011;49297;43.210;27.914;2022-08-01T00:49:28;9.02;;;5.93;;
63203;SDS011;49297;43.210;27.914;2022-08-01T00:51:54;7.82;;;7.18;;
63203;SDS011;49297;43.210;27.914;2022-08-01T00:54:22;7.88;;;7.18;;
63203;SDS011;49297;43.210;27.914;2022-08-01T00:56:49;8.77;;;7.57;;
63203;SDS011;49297;43.210;27.914;2022-08-01T00:59:16;8.38;;;6.80;;
63203;SDS011;49297;43.210;27.914;2022-08-01T01:01:43;8.68;;;7.93;;
63203;SDS011;49297;43.210;27.914;2022-08-01T01:04:09;9.02;;;7.78;;
63203;SDS011;49297;43.210;27.914;2022-08-01T01:15:04;7.78;;;7.18;;
63203;SDS011;49297;43.210;27.914;2022-08-01T01:17:38;10.68;;;8.88;;
63203;SDS011;49297;43.210;27.914;2022-08-01T01:20:17;7.28;;;6.57;;
63203;SDS011;49297;43.210;27.914;2022-08-01T01:23:06;8.98;;;7.68;;
63203;SDS011;49297;43.210;27.914;2022-08-01T01:28:27;8.38;;;7.68;;
63203;SDS011;49297;43.210;27.914;2022-08-01T01:30:59;12.27;;;7.05;;
63203;SDS011;49297;43.210;27.914;2022-08-01T01:33:27;8.82;;;6.82;;
63203;SDS011;49297;43.210;27.914;2022-08-01T01:35:58;11.88;;;6.95;;
63203;SDS011;49297;43.210;27.914;2022-08-01T01:38:27;9.88;;;8.10;;
63203;SDS011;49297;43.210;27.914;2022-08-01T01:40:57;7.78;;;7.13;;
63203;SDS011;49297;43.210;27.914;2022-08-01T01:43:24;11.98;;;7.60;;
63203;SDS011;49297;43.210;27.914;2022-08-01T01:45:51;9.45;;;7.55;;
63203;SDS011;49297;43.210;27.914;2022-08-01T01:48:19;8.85;;;6.97;;
63203;SDS011;49297;43.210;27.914;2022-08-01T01:50:48;8.82;;;7.38;;
63203;SDS011;49297;43.210;27.914;2022-08-01T01:53:16;7.95;;;7.18;;
63203;SDS011;49297;43.210;27.914;2022-08-01T01:55:45;7.25;;;6.60;;
63203;SDS011;49297;43.210;27.914;2022-08-01T01:58:14;10.68;;;8.38;;
63203;SDS011;49297;43.210;27.914;2022-08-01T02:00:42;7.63;;;6.63;;
63203;SDS011;49297;43.210;27.914;2022-08-01T02:03:10;8.98;;;8.05;;
63203;SDS011;49297;43.210;27.914;2022-08-01T02:05:37;10.73;;;7.53;;
63203;SDS011;49297;43.210;27.914;2022-08-01T02:08:04;11.52;;;7.05;;
63203;SDS011;49297;43.210;27.914;2022-08-01T02:10:32;7.93;;;7.18;;
63203;SDS011;49297;43.210;27.914;2022-08-01T02:12:59;7.57;;;5.93;;
63203;SDS011;49297;43.210;27.914;2022-08-01T02:15:29;6.95;;;6.28;;
63203;SDS011;49297;43.210;27.914;2022-08-01T02:17:56;7.30;;;6.60;;
63203;SDS011;49297;43.210;27.914;2022-08-01T02:20:25;13.88;;;7.03;;
63203;SDS011;49297;43.210;27.914;2022-08-01T02:23:00;7.00;;;6.38;;
63203;SDS011;49297;43.210;27.914;2022-08-01T02:25:33;8.05;;;6.57;;
63203;SDS011;49297;43.210;27.914;2022-08-01T02:28:07;6.25;;;5.65;;
63203;SDS011;49297;43.210;27.914;2022-08-01T02:30:38;6.68;;;5.82;;
63203;SDS011;49297;43.210;27.914;2022-08-01T02:35:37;5.90;;;5.38;;
63203;SDS011;49297;43.210;27.914;2022-08-01T02:38:05;5.32;;;4.55;;
63203;SDS011;49297;43.210;27.914;2022-08-01T02:40:37;8.32;;;5.65;;
63203;SDS011;49297;43.210;27.914;2022-08-01T02:43:05;6.25;;;5.25;;
63203;SDS011;49297;43.210;27.914;2022-08-01T02:45:33;7.88;;;6.35;;
63203;SDS011;49297;43.210;27.914;2022-08-01T02:48:06;8.00;;;4.63;;
63203;SDS011;49297;43.210;27.914;2022-08-01T02:50:36;5.60;;;5.10;;
63203;SDS011;49297;43.210;27.914;2022-08-01T02:53:03;4.50;;;4.20;;
63203;SDS011;49297;43.210;27.914;2022-08-01T02:55:32;5.68;;;4.60;;
63203;SDS011;49297;43.210;27.914;2022-08-01T02:57:59;5.22;;;4.82;;
63203;SDS011;49297;43.210;27.914;2022-08-01T03:00:27;8.07;;;5.45;;
63203;SDS011;49297;43.210;27.914;2022-08-01T03:02:55;7.53;;;4.65;;
63203;SDS011;49297;43.210;27.914;2022-08-01T03:05:24;4.80;;;4.40;;
63203;SDS011;49297;43.210;27.914;2022-08-01T03:07:52;4.95;;;4.50;;
63203;SDS011;49297;43.210;27.914;2022-08-01T03:10:20;4.75;;;4.32;;
63203;SDS011;49297;43.210;27.914;2022-08-01T03:12:48;7.28;;;3.88;;
63203;SDS011;49297;43.210;27.914;2022-08-01T03:15:15;6.65;;;3.47;;
63203;SDS011;49297;43.210;27.914;2022-08-01T03:17:43;3.42;;;2.92;;
63203;SDS011;49297;43.210;27.914;2022-08-01T03:20:11;7.72;;;3.95;;
63203;SDS011;49297;43.210;27.914;2022-08-01T03:22:40;3.35;;;3.05;;
63203;SDS011;49297;43.210;27.914;2022-08-01T03:25:08;4.10;;;3.70;;
63203;SDS011;49297;43.210;27.914;2022-08-01T03:27:37;3.47;;;3.10;;
63203;SDS011;49297;43.210;27.914;2022-08-01T03:30:07;3.30;;;2.88;;
63203;SDS011;49297;43.210;27.914;2022-08-01T03:32:33;3.70;;;3.35;;
63203;SDS011;49297;43.210;27.914;2022-08-01T03:34:59;8.38;;;3.45;;
63203;SDS011;49297;43.210;27.914;2022-08-01T03:37:26;6.20;;;3.83;;
63203;SDS011;49297;43.210;27.914;2022-08-01T03:39:54;4.65;;;3.03;;
63203;SDS011;49297;43.210;27.914;2022-08-01T03:42:28;2.80;;;2.60;;
63203;SDS011;49297;43.210;27.914;2022-08-01T03:45:10;3.50;;;3.20;;
63203;SDS011;49297;43.210;27.914;2022-08-01T03:47:38;3.55;;;3.13;;
63203;SDS011;49297;43.210;27.914;2022-08-01T03:50:08;3.85;;;3.40;;
63203;SDS011;49297;43.210;27.914;2022-08-01T03:52:37;3.85;;;3.03;;
63203;SDS011;49297;43.210;27.914;2022-08-01T03:55:07;3.10;;;2.78;;
63203;SDS011;49297;43.210;27.914;2022-08-01T03:57:33;2.60;;;2.40;;
63203;SDS011;49297;43.210;27.914;2022-08-01T03:59:59;2.35;;;2.17;;
63203;SDS011;49297;43.210;27.914;2022-08-01T04:02:26;3.35;;;2.28;;
63203;SDS011;49297;43.210;27.914;2022-08-01T04:04:52;2.63;;;2.42;;
63203;SDS011;49297;43.210;27.914;2022-08-01T04:07:23;2.15;;;1.95;;
63203;SDS011;49297;43.210;27.914;2022-08-01T04:09:50;8.00;;;2.80;;
63203;SDS011;49297;43.210;27.914;2022-08-01T04:12:17;3.13;;;2.83;;
63203;SDS011;49297;43.210;27.914;2022-08-01T04:14:42;2.55;;;2.35;;
63203;SDS011;49297;43.210;27.914;2022-08-01T04:17:08;1.92;;;1.83;;
63203;SDS011;49297;43.210;27.914;2022-08-01T04:19:34;4.05;;;2.50;;
63203;SDS011;49297;43.210;27.914;2022-08-01T04:22:00;2.30;;;1.83;;
63203;SDS011;49297;43.210;27.914;2022-08-01T04:24:28;3.03;;;2.47;;
63203;SDS011;49297;43.210;27.914;2022-08-01T04:26:57;2.08;;;1.77;;
63203;SDS011;49297;43.210;27.914;2022-08-01T04:29:25;8.70;;;2.60;;
63203;SDS011;49297;43.210;27.914;2022-08-01T04:31:53;3.22;;;2.25;;
63203;SDS011;49297;43.210;27.914;2022-08-01T04:34:21;5.22;;;2.40;;
63203;SDS011;49297;43.210;27.914;2022-08-01T04:36:50;1.95;;;1.80;;
63203;SDS011;49297;43.210;27.914;2022-08-01T04:39:18;1.80;;;1.63;;
63203;SDS011;49297;43.210;27.914;2022-08-01T04:41:45;9.57;;;2.65;;
63203;SDS011;49297;43.210;27.914;2022-08-01T04:44:12;2.42;;;1.92;;
63203;SDS011;49297;43.210;27.914;2022-08-01T04:46:39;3.20;;;2.50;;
63203;SDS011;49297;43.210;27.914;2022-08-01T04:49:10;1.98;;;1.63;;
63203;SDS011;49297;43.210;27.914;2022-08-01T04:51:37;3.97;;;1.95;;
63203;SDS011;49297;43.210;27.914;2022-08-01T04:54:16;2.70;;;1.88;;
63203;SDS011;49297;43.210;27.914;2022-08-01T04:56:42;1.77;;;1.60;;
63203;SDS011;49297;43.210;27.914;2022-08-01T04:59:07;2.70;;;2.30;;
63203;SDS011;49297;43.210;27.914;2022-08-01T05:01:51;6.38;;;3.13;;
63203;SDS011;49297;43.210;27.914;2022-08-01T05:04:17;3.90;;;2.45;;
63203;SDS011;49297;43.210;27.914;2022-08-01T05:06:43;2.45;;;1.80;;
63203;SDS011;49297;43.210;27.914;2022-08-01T05:09:09;3.42;;;1.73;;
63203;SDS011;49297;43.210;27.914;2022-08-01T05:11:35;5.15;;;2.08;;
63203;SDS011;49297;43.210;27.914;2022-08-01T05:14:00;6.78;;;1.85;;
63203;SDS011;49297;43.210;27.914;2022-08-01T05:16:26;2.33;;;1.30;;
63203;SDS011;49297;43.210;27.914;2022-08-01T05:18:52;1.77;;;1.67;;
63203;SDS011;49297;43.210;27.914;2022-08-01T05:21:17;4.93;;;1.60;;
63203;SDS011;49297;43.210;27.914;2022-08-01T05:23:43;2.20;;;1.45;;
63203;SDS011;49297;43.210;27.914;2022-08-01T05:26:10;2.88;;;1.80;;
63203;SDS011;49297;43.210;27.914;2022-08-01T05:28:37;6.13;;;2.05;;
63203;SDS011;49297;43.210;27.914;2022-08-01T05:31:03;4.22;;;2.20;;
63203;SDS011;49297;43.210;27.914;2022-08-01T05:33:29;3.33;;;2.25;;
63203;SDS011;49297;43.210;27.914;2022-08-01T05:35:55;2.30;;;1.30;;
63203;SDS011;49297;43.210;27.914;2022-08-01T05:38:20;8.65;;;2.45;;
63203;SDS011;49297;43.210;27.914;2022-08-01T05:40:46;1.75;;;1.63;;
63203;SDS011;49297;43.210;27.914;2022-08-01T05:43:12;1.98;;;1.50;;
63203;SDS011;49297;43.210;27.914;2022-08-01T05:45:37;3.92;;;2.13;;
63203;SDS011;49297;43.210;27.914;2022-08-01T05:48:03;4.00;;;1.90;;
63203;SDS011;49297;43.210;27.914;2022-08-01T05:50:29;1.45;;;1.33;;
63203;SDS011;49297;43.210;27.914;2022-08-01T05:52:55;2.92;;;1.73;;
63203;SDS011;49297;43.210;27.914;2022-08-01T05:55:21;5.40;;;1.83;;
63203;SDS011;49297;43.210;27.914;2022-08-01T05:57:46;6.18;;;2.40;;
63203;SDS011;49297;43.210;27.914;2022-08-01T06:00:12;1.63;;;1.52;;
63203;SDS011;49297;43.210;27.914;2022-08-01T06:02:40;8.65;;;2.30;;
63203;SDS011;49297;43.210;27.914;2022-08-01T06:05:07;1.58;;;1.48;;
63203;SDS011;49297;43.210;27.914;2022-08-01T06:07:33;4.53;;;2.53;;
63203;SDS011;49297;43.210;27.914;2022-08-01T06:09:59;8.27;;;1.92;;
63203;SDS011;49297;43.210;27.914;2022-08-01T06:12:31;3.13;;;1.45;;
63203;SDS011;49297;43.210;27.914;2022-08-01T06:14:58;2.30;;;1.35;;
63203;SDS011;49297;43.210;27.914;2022-08-01T06:17:24;2.03;;;1.48;;
63203;SDS011;49297;43.210;27.914;2022-08-01T06:19:50;4.07;;;1.65;;
63203;SDS011;49297;43.210;27.914;2022-08-01T06:22:15;2.42;;;1.70;;
63203;SDS011;49297;43.210;27.914;2022-08-01T06:24:41;1.80;;;1.42;;
63203;SDS011;49297;43.210;27.914;2022-08-01T06:27:07;4.72;;;1.70;;
63203;SDS011;49297;43.210;27.914;2022-08-01T06:29:33;8.38;;;2.47;;
63203;SDS011;49297;43.210;27.914;2022-08-01T06:32:00;6.43;;;1.42;;
63203;SDS011;49297;43.210;27.914;2022-08-01T06:34:29;1.80;;;1.65;;
63203;SDS011;49297;43.210;27.914;2022-08-01T06:36:59;4.82;;;1.50;;
63203;SDS011;49297;43.210;27.914;2022-08-01T06:39:25;5.20;;;1.70;;
63203;SDS011;49297;43.210;27.914;2022-08-01T06:41:51;2.65;;;1.60;;
63203;SDS011;49297;43.210;27.914;2022-08-01T06:44:17;1.33;;;1.02;;
63203;SDS011;49297;43.210;27.914;2022-08-01T06:46:42;2.33;;;1.58;;
63203;SDS011;49297;43.210;27.914;2022-08-01T06:49:08;4.15;;;1.60;;
63203;SDS011;49297;43.210;27.914;2022-08-01T06:51:34;2.25;;;1.02;;
63203;SDS011;49297;43.210;27.914;2022-08-01T06:53:59;4.50;;;1.65;;
63203;SDS011;49297;43.210;27.914;2022-08-01T06:56:25;1.85;;;1.17;;
63203;SDS011;49297;43.210;27.914;2022-08-01T06:58:51;1.38;;;1.00;;
63203;SDS011;49297;43.210;27.914;2022-08-01T07:01:17;2.38;;;1.10;;
63203;SDS011;49297;43.210;27.914;2022-08-01T07:03:43;1.77;;;1.42;;
63203;SDS011;49297;43.210;27.914;2022-08-01T07:06:09;2.25;;;0.90;;
63203;SDS011;49297;43.210;27.914;2022-08-01T07:08:35;2.15;;;1.38;;
63203;SDS011;49297;43.210;27.914;2022-08-01T07:11:01;1.23;;;1.20;;
63203;SDS011;49297;43.210;27.914;2022-08-01T07:13:28;1.20;;;1.08;;
63203;SDS011;49297;43.210;27.914;2022-08-01T07:15:56;0.80;;;0.80;;
63203;SDS011;49297;43.210;27.914;2022-08-01T07:18:22;2.22;;;1.40;;
63203;SDS011;49297;43.210;27.914;2022-08-01T07:20:48;1.83;;;1.65;;
63203;SDS011;49297;43.210;27.914;2022-08-01T07:23:14;6.45;;;1.63;;
63203;SDS011;49297;43.210;27.914;2022-08-01T07:25:41;1.50;;;1.33;;
63203;SDS011;49297;43.210;27.914;2022-08-01T07:28:08;2.72;;;1.20;;
63203;SDS011;49297;43.210;27.914;2022-08-01T07:30:34;1.13;;;1.02;;
63203;SDS011;49297;43.210;27.914;2022-08-01T07:33:00;2.13;;;1.15;;
63203;SDS011;49297;43.210;27.914;2022-08-01T07:35:27;6.43;;;2.13;;
63203;SDS011;49297;43.210;27.914;2022-08-01T07:37:52;1.27;;;1.17;;
63203;SDS011;49297;43.210;27.914;2022-08-01T07:40:18;2.70;;;1.42;;
63203;SDS011;49297;43.210;27.914;2022-08-01T07:42:45;2.53;;;1.50;;
63203;SDS011;49297;43.210;27.914;2022-08-01T07:45:12;2.88;;;1.50;;
63203;SDS011;49297;43.210;27.914;2022-08-01T07:47:38;1.98;;;1.40;;
63203;SDS011;49297;43.210;27.914;2022-08-01T07:50:04;1.52;;;0.95;;
63203;SDS011;49297;43.210;27.914;2022-08-01T07:52:30;1.58;;;0.80;;
63203;SDS011;49297;43.210;27.914;2022-08-01T07:54:57;2.97;;;1.52;;
63203;SDS011;49297;43.210;27.914;2022-08-01T07:57:24;1.15;;;1.15;;
63203;SDS011;49297;43.210;27.914;2022-08-01T07:59:50;2.92;;;1.98;;
63203;SDS011;49297;43.210;27.914;2022-08-01T08:02:17;1.88;;;1.33;;
63203;SDS011;49297;43.210;27.914;2022-08-01T08:04:42;3.63;;;1.20;;
63203;SDS011;49297;43.210;27.914;2022-08-01T08:07:08;4.55;;;1.77;;
63203;SDS011;49297;43.210;27.914;2022-08-01T08:09:34;1.52;;;1.33;;
63203;SDS011;49297;43.210;27.914;2022-08-01T08:12:00;1.13;;;0.82;;
63203;SDS011;49297;43.210;27.914;2022-08-01T08:14:26;2.35;;;1.20;;
63203;SDS011;49297;43.210;27.914;2022-08-01T08:16:51;3.75;;;2.00;;
63203;SDS011;49297;43.210;27.914;2022-08-01T08:19:17;2.55;;;1.35;;
63203;SDS011;49297;43.210;27.914;2022-08-01T08:21:43;1.95;;;0.95;;
63203;SDS011;49297;43.210;27.914;2022-08-01T08:24:09;1.27;;;1.00;;
63203;SDS011;49297;43.210;27.914;2022-08-01T08:26:46;1.27;;;1.08;;
63203;SDS011;49297;43.210;27.914;2022-08-01T08:29:18;3.38;;;1.27;;
63203;SDS011;49297;43.210;27.914;2022-08-01T08:31:44;2.40;;;1.10;;
63203;SDS011;49297;43.210;27.914;2022-08-01T08:34:10;1.23;;;1.00;;
63203;SDS011;49297;43.210;27.914;2022-08-01T08:36:37;0.88;;;0.85;;
63203;SDS011;49297;43.210;27.914;2022-08-01T08:39:03;0.77;;;0.70;;
63203;SDS011;49297;43.210;27.914;2022-08-01T08:41:31;1.73;;;1.27;;
63203;SDS011;49297;43.210;27.914;2022-08-01T08:44:00;2.20;;;0.95;;
63203;SDS011;49297;43.210;27.914;2022-08-01T08:46:27;2.58;;;1.48;;
63203;SDS011;49297;43.210;27.914;2022-08-01T08:48:54;2.83;;;1.63;;
63203;SDS011;49297;43.210;27.914;2022-08-01T08:51:21;1.98;;;0.98;;
63203;SDS011;49297;43.210;27.914;2022-08-01T08:53:51;2.28;;;0.77;;
63203;SDS011;49297;43.210;27.914;2022-08-01T08:56:21;2.17;;;1.83;;
63203;SDS011;49297;43.210;27.914;2022-08-01T08:58:49;2.70;;;0.75;;
63203;SDS011;49297;43.210;27.914;2022-08-01T09:01:16;2.65;;;0.95;;
63203;SDS011;49297;43.210;27.914;2022-08-01T09:03:43;2.75;;;1.00;;
63203;SDS011;49297;43.210;27.914;2022-08-01T09:06:10;1.20;;;1.00;;
63203;SDS011;49297;43.210;27.914;2022-08-01T09:08:36;2.25;;;1.38;;
63203;SDS011;49297;43.210;27.914;2022-08-01T09:11:03;2.90;;;1.05;;
63203;SDS011;49297;43.210;27.914;2022-08-01T09:13:29;1.15;;;1.05;;
63203;SDS011;49297;43.210;27.914;2022-08-01T09:15:55;1.00;;;0.82;;
63203;SDS011;49297;43.210;27.914;2022-08-01T09:18:35;0.73;;;0.70;;
63203;SDS011;49297;43.210;27.914;2022-08-01T09:21:08;2.65;;;0.90;;
63203;SDS011;49297;43.210;27.914;2022-08-01T09:23:37;1.50;;;0.80;;
63203;SDS011;49297;43.210;27.914;2022-08-01T09:26:06;0.93;;;0.88;;
63203;SDS011;49297;43.210;27.914;2022-08-01T09:28:32;0.75;;;0.75;;
63203;SDS011;49297;43.210;27.914;2022-08-01T09:31:07;0.90;;;0.70;;
63203;SDS011;49297;43.210;27.914;2022-08-01T09:36:21;1.50;;;1.00;;
63203;SDS011;49297;43.210;27.914;2022-08-01T09:38:49;3.67;;;0.63;;
63203;SDS011;49297;43.210;27.914;2022-08-01T09:41:16;2.33;;;1.08;;
63203;SDS011;49297;43.210;27.914;2022-08-01T09:43:49;2.58;;;1.10;;
63203;SDS011;49297;43.210;27.914;2022-08-01T09:46:15;1.67;;;0.93;;
63203;SDS011;49297;43.210;27.914;2022-08-01T09:48:58;1.50;;;1.23;;
63203;SDS011;49297;43.210;27.914;2022-08-01T09:51:33;0.40;;;0.40;;
63203;SDS011;49297;43.210;27.914;2022-08-01T09:54:01;2.42;;;0.95;;
63203;SDS011;49297;43.210;27.914;2022-08-01T09:56:42;0.90;;;0.82;;
63203;SDS011;49297;43.210;27.914;2022-08-01T09:59:08;1.60;;;1.23;;
63203;SDS011;49297;43.210;27.914;2022-08-01T10:01:52;1.00;;;0.90;;
63203;SDS011;49297;43.210;27.914;2022-08-01T10:04:19;1.60;;;0.60;;
63203;SDS011;49297;43.210;27.914;2022-08-01T10:06:46;0.82;;;0.82;;
63203;SDS011;49297;43.210;27.914;2022-08-01T10:09:28;1.05;;;0.77;;
63203;SDS011;49297;43.210;27.914;2022-08-01T10:11:55;1.17;;;0.98;;
63203;SDS011;49297;43.210;27.914;2022-08-01T10:14:22;3.35;;;0.88;;
63203;SDS011;49297;43.210;27.914;2022-08-01T10:16:51;2.00;;;0.75;;
63203;SDS011;49297;43.210;27.914;2022-08-01T10:19:18;1.45;;;0.63;;
63203;SDS011;49297;43.210;27.914;2022-08-01T10:21:47;0.85;;;0.65;;
63203;SDS011;49297;43.210;27.914;2022-08-01T10:24:17;1.20;;;0.85;;
63203;SDS011;49297;43.210;27.914;2022-08-01T10:26:44;0.73;;;0.70;;
63203;SDS011;49297;43.210;27.914;2022-08-01T10:29:17;0.40;;;0.40;;
63203;SDS011;49297;43.210;27.914;2022-08-01T10:31:48;2.90;;;1.00;;
63203;SDS011;49297;43.210;27.914;2022-08-01T10:34:14;0.77;;;0.75;;
63203;SDS011;49297;43.210;27.914;2022-08-01T10:36:46;5.45;;;1.45;;
63203;SDS011;49297;43.210;27.914;2022-08-01T10:39:13;1.20;;;0.60;;
63203;SDS011;49297;43.210;27.914;2022-08-01T10:41:39;1.52;;;0.95;;
63203;SDS011;49297;43.210;27.914;2022-08-01T10:44:07;0.98;;;0.55;;
63203;SDS011;49297;43.210;27.914;2022-08-01T10:46:37;2.92;;;0.90;;
63203;SDS011;49297;43.210;27.914;2022-08-01T10:49:09;1.05;;;0.60;;
63203;SDS011;49297;43.210;27.914;2022-08-01T10:51:37;1.40;;;0.80;;
63203;SDS011;49297;43.210;27.914;2022-08-01T10:54:07;1.88;;;0.82;;
63203;SDS011;49297;43.210;27.914;2022-08-01T10:56:47;3.17;;;1.08;;
63203;SDS011;49297;43.210;27.914;2022-08-01T10:59:15;0.57;;;0.57;;
63203;SDS011;49297;43.210;27.914;2022-08-01T11:02:03;3.15;;;1.60;;
63203;SDS011;49297;43.210;27.914;2022-08-01T11:07:11;2.45;;;1.25;;
63203;SDS011;49297;43.210;27.914;2022-08-01T11:09:42;1.55;;;1.10;;
63203;SDS011;49297;43.210;27.914;2022-08-01T11:12:11;4.03;;;1.38;;
63203;SDS011;49297;43.210;27.914;2022-08-01T11:20:17;2.80;;;1.02;;
63203;SDS011;49297;43.210;27.914;2022-08-01T11:26:11;1.08;;;0.80;;
63203;SDS011;49297;43.210;27.914;2022-08-01T11:30:39;0.82;;;0.82;;
63203;SDS011;49297;43.210;27.914;2022-08-01T11:33:05;0.75;;;0.75;;
63203;SDS011;49297;43.210;27.914;2022-08-01T11:35:31;2.40;;;0.70;;
63203;SDS011;49297;43.210;27.914;2022-08-01T11:38:21;1.90;;;1.55;;
63203;SDS011;49297;43.210;27.914;2022-08-01T11:43:59;1.00;;;0.90;;
63203;SDS011;49297;43.210;27.914;2022-08-01T11:52:06;1.15;;;0.60;;
63203;SDS011;49297;43.210;27.914;2022-08-01T11:54:49;1.27;;;1.13;;
63203;SDS011;49297;43.210;27.914;2022-08-01T11:57:20;4.93;;;1.17;;
63203;SDS011;49297;43.210;27.914;2022-08-01T11:59:48;0.80;;;0.57;;
63203;SDS011;49297;43.210;27.914;2022-08-01T12:02:20;1.42;;;0.70;;
63203;SDS011;49297;43.210;27.914;2022-08-01T12:04:48;2.42;;;0.80;;
63203;SDS011;49297;43.210;27.914;2022-08-01T12:07:15;0.73;;;0.70;;
63203;SDS011;49297;43.210;27.914;2022-08-01T12:09:42;1.13;;;0.77;;
63203;SDS011;49297;43.210;27.914;2022-08-01T12:12:08;1.35;;;1.20;;
63203;SDS011;49297;43.210;27.914;2022-08-01T12:14:35;2.28;;;0.93;;
63203;SDS011;49297;43.210;27.914;2022-08-01T12:17:01;5.90;;;1.30;;
63203;SDS011;49297;43.210;27.914;2022-08-01T12:19:26;1.90;;;1.10;;
63203;SDS011;49297;43.210;27.914;2022-08-01T12:22:09;2.08;;;1.08;;
63203;SDS011;49297;43.210;27.914;2022-08-01T12:24:40;1.05;;;0.65;;
63203;SDS011;49297;43.210;27.914;2022-08-01T12:27:08;4.85;;;1.50;;
63203;SDS011;49297;43.210;27.914;2022-08-01T12:29:40;0.70;;;0.65;;
63203;SDS011;49297;43.210;27.914;2022-08-01T12:35:01;1.13;;;1.02;;
63203;SDS011;49297;43.210;27.914;2022-08-01T12:37:27;3.88;;;0.95;;
63203;SDS011;49297;43.210;27.914;2022-08-01T12:39:53;2.97;;;1.00;;
63203;SDS011;49297;43.210;27.914;2022-08-01T12:42:19;1.73;;;0.85;;
63203;SDS011;49297;43.210;27.914;2022-08-01T12:44:46;1.83;;;1.20;;
63203;SDS011;49297;43.210;27.914;2022-08-01T12:47:16;0.98;;;0.85;;
63203;SDS011;49297;43.210;27.914;2022-08-01T12:49:43;8.25;;;1.15;;
63203;SDS011;49297;43.210;27.914;2022-08-01T12:52:10;2.60;;;1.00;;
63203;SDS011;49297;43.210;27.914;2022-08-01T12:57:33;10.77;;;2.28;;
63203;SDS011;49297;43.210;27.914;2022-08-01T13:00:07;1.85;;;1.38;;
63203;SDS011;49297;43.210;27.914;2022-08-01T13:02:38;2.42;;;1.33;;
63203;SDS011;49297;43.210;27.914;2022-08-01T13:05:04;8.70;;;1.50;;
63203;SDS011;49297;43.210;27.914;2022-08-01T13:08:08;2.08;;;1.27;;
63203;SDS011;49297;43.210;27.914;2022-08-01T13:10:28;1.23;;;0.90;;
63203;SDS011;49297;43.210;27.914;2022-08-01T13:12:57;2.55;;;1.08;;
63203;SDS011;49297;43.210;27.914;2022-08-01T13:15:25;1.48;;;1.30;;
63203;SDS011;49297;43.210;27.914;2022-08-01T13:18:01;1.55;;;1.00;;
63203;SDS011;49297;43.210;27.914;2022-08-01T13:20:46;1.63;;;1.17;;
63203;SDS011;49297;43.210;27.914;2022-08-01T13:23:13;2.15;;;1.00;;
63203;SDS011;49297;43.210;27.914;2022-08-01T13:25:46;0.80;;;0.80;;
63203;SDS011;49297;43.210;27.914;2022-08-01T13:28:17;1.38;;;0.90;;
63203;SDS011;49297;43.210;27.914;2022-08-01T13:33:44;0.80;;;0.75;;
63203;SDS011;49297;43.210;27.914;2022-08-01T13:36:11;0.82;;;0.82;;
63203;SDS011;49297;43.210;27.914;2022-08-01T13:38:37;2.15;;;1.42;;
63203;SDS011;49297;43.210;27.914;2022-08-01T13:41:22;2.03;;;1.17;;
63203;SDS011;49297;43.210;27.914;2022-08-01T13:43:48;5.90;;;1.83;;
63203;SDS011;49297;43.210;27.914;2022-08-01T13:46:13;2.97;;;1.23;;
63203;SDS011;49297;43.210;27.914;2022-08-01T13:48:39;5.10;;;1.58;;
63203;SDS011;49297;43.210;27.914;2022-08-01T13:51:05;7.63;;;1.35;;
63203;SDS011;49297;43.210;27.914;2022-08-01T13:53:31;7.82;;;1.27;;
63203;SDS011;49297;43.210;27.914;2022-08-01T13:55:57;1.55;;;1.02;;
63203;SDS011;49297;43.210;27.914;2022-08-01T13:58:22;7.35;;;1.75;;
63203;SDS011;49297;43.210;27.914;2022-08-01T14:00:48;1.17;;;0.52;;
63203;SDS011;49297;43.210;27.914;2022-08-01T14:03:14;1.13;;;0.98;;
63203;SDS011;49297;43.210;27.914;2022-08-01T14:05:42;2.90;;;1.98;;
63203;SDS011;49297;43.210;27.914;2022-08-01T14:08:09;2.50;;;1.98;;
63203;SDS011;49297;43.210;27.914;2022-08-01T14:10:35;4.50;;;1.90;;
63203;SDS011;49297;43.210;27.914;2022-08-01T14:13:00;1.38;;;1.27;;
63203;SDS011;49297;43.210;27.914;2022-08-01T14:15:26;1.90;;;1.15;;
63203;SDS011;49297;43.210;27.914;2022-08-01T14:17:52;7.32;;;1.35;;
63203;SDS011;49297;43.210;27.914;2022-08-01T14:20:18;1.67;;;1.08;;
63203;SDS011;49297;43.210;27.914;2022-08-01T14:22:45;6.10;;;1.25;;
63203;SDS011;49297;43.210;27.914;2022-08-01T14:25:11;1.25;;;0.85;;
63203;SDS011;49297;43.210;27.914;2022-08-01T14:27:38;4.22;;;1.13;;
63203;SDS011;49297;43.210;27.914;2022-08-01T14:30:06;4.90;;;1.52;;
63203;SDS011;49297;43.210;27.914;2022-08-01T14:32:33;1.38;;;1.25;;
63203;SDS011;49297;43.210;27.914;2022-08-01T14:35:00;6.03;;;1.55;;
63203;SDS011;49297;43.210;27.914;2022-08-01T14:37:26;25.63;;;2.50;;
63203;SDS011;49297;43.210;27.914;2022-08-01T14:39:54;1.40;;;1.30;;
63203;SDS011;49297;43.210;27.914;2022-08-01T14:42:23;2.15;;;1.08;;
63203;SDS011;49297;43.210;27.914;2022-08-01T14:44:48;1.77;;;1.55;;
63203;SDS011;49297;43.210;27.914;2022-08-01T14:47:14;1.35;;;1.15;;
63203;SDS011;49297;43.210;27.914;2022-08-01T14:49:40;3.25;;;1.35;;
63203;SDS011;49297;43.210;27.914;2022-08-01T14:52:05;1.35;;;1.00;;
63203;SDS011;49297;43.210;27.914;2022-08-01T14:54:31;1.13;;;1.02;;
63203;SDS011;49297;43.210;27.914;2022-08-01T14:56:57;1.40;;;1.30;;
63203;SDS011;49297;43.210;27.914;2022-08-01T14:59:23;1.15;;;1.02;;
63203;SDS011;49297;43.210;27.914;2022-08-01T15:01:49;8.57;;;2.25;;
63203;SDS011;49297;43.210;27.914;2022-08-01T15:04:15;5.55;;;2.05;;
63203;SDS011;49297;43.210;27.914;2022-08-01T15:06:42;2.13;;;1.92;;
63203;SDS011;49297;43.210;27.914;2022-08-01T15:09:08;1.45;;;1.17;;
63203;SDS011;49297;43.210;27.914;2022-08-01T15:11:34;3.25;;;1.85;;
63203;SDS011;49297;43.210;27.914;2022-08-01T15:14:00;3.80;;;2.25;;
63203;SDS011;49297;43.210;27.914;2022-08-01T15:16:44;2.60;;;2.28;;
63203;SDS011;49297;43.210;27.914;2022-08-01T15:19:10;2.80;;;2.45;;
63203;SDS011;49297;43.210;27.914;2022-08-01T15:21:36;2.30;;;2.10;;
63203;SDS011;49297;43.210;27.914;2022-08-01T15:24:01;2.10;;;1.90;;
63203;SDS011;49297;43.210;27.914;2022-08-01T15:26:27;2.85;;;1.70;;